Data for 10/02/2007

Time Sea-Level Adjusted Pressure Absolute Pressure Temperature Relative Humidity Dew Point   
(mb) (inHg) (mb) (inHg) (C) (F) (%) (C) (F)
00:05 1021 30.15 850 25.1 4.9 40.9 74 0.6 33.1
00:10 1021 30.15 850 25.1 4.7 40.5 75 0.6 33.1
00:15 1021 30.15 850 25.1 4.5 40.1 75 0.5 32.9
00:20 1021 30.15 850 25.1 4.5 40.1 76 0.6 33.2
00:25 1021 30.15 850 25.1 4.6 40.2 74 0.4 32.6
00:30 1021 30.15 850 25.1 4.6 40.3 73 0.2 32.4
00:35 1021 30.15 850 25.1 4.8 40.6 68 -0.6 30.9
00:40 1021 30.15 850 25.1 5.2 41.3 67 -0.4 31.2
00:45 1021 30.15 850 25.1 5.3 41.6 66 -0.5 31.1
00:50 1021 30.15 850 25.1 5.4 41.8 65 -0.6 30.8
00:55 1021 30.15 850 25.1 5.4 41.7 65 -0.8 30.6
01:00 1021 30.15 850 25.1 5.3 41.5 65 -0.7 30.8
01:05 1021 30.15 850 25.1 5.1 41.2 68 -0.4 31.3
01:10 1021 30.15 850 25.1 5 41 67 -0.5 31
01:15 1021 30.15 850 25.1 5 41 66 -0.7 30.8
01:20 1021 30.15 850 25.1 5.2 41.3 63 -1.2 29.8
01:25 1021 30.15 850 25.1 5.2 41.3 65 -1 30.3
01:30 1021 30.15 850 25.1 5 41.1 67 -0.6 30.9
01:35 1021 30.15 850 25.1 4.8 40.6 70 -0.2 31.6
01:40 1021 30.15 850 25.1 4.5 40.1 72 -0.1 31.8
01:45 1021 30.15 850 25.1 4.5 40 71 -0.4 31.3
01:50 1021 30.15 850 25.1 4.5 40.1 70 -0.4 31.3
01:55 1021 30.15 850 25.1 4.6 40.2 68 -0.7 30.7
02:00 1021 30.15 850 25.1 4.7 40.4 67 -0.9 30.3
02:05 1021 30.15 850 25.1 4.7 40.4 67 -0.9 30.4
02:10 1021 30.15 850 25.1 4.7 40.4 65 -1.2 29.8
02:15 1021 30.15 850 25.1 4.7 40.5 65 -1.3 29.6
02:20 1021 30.15 850 25.1 4.7 40.5 64 -1.5 29.4
02:25 1021 30.15 850 25.1 4.7 40.5 65 -1.3 29.6
02:30 1021 30.15 850 25.1 4.7 40.4 64 -1.6 29.1
02:35 1021 30.15 850 25.1 4.7 40.4 64 -1.6 29.1
02:40 1021 30.15 850 25.1 4.7 40.4 63 -1.6 29
02:45 1021 30.15 850 25.1 4.6 40.4 63 -1.8 28.8
02:50 1021 30.15 850 25.1 4.6 40.4 61 -2.1 28.2
02:55 1021 30.15 850 25.1 4.7 40.5 62 -1.9 28.5
03:00 1021 30.15 850 25.1 4.6 40.3 63 -1.7 28.9
03:05 1021 30.15 850 25.1 4.5 40.1 65 -1.5 29.3
03:10 1021 30.15 850 25.1 4.4 39.9 65 -1.5 29.3
03:15 1021 30.15 850 25.1 4.3 39.8 66 -1.5 29.2
03:20 1021 30.15 850 25.1 4.4 39.9 66 -1.4 29.4
03:25 1021 30.15 850 25.1 4.4 39.9 66 -1.4 29.5
03:30 1021 30.15 850 25.1 4.3 39.8 66 -1.5 29.3
03:35 1021 30.15 850 25.1 4.3 39.8 65 -1.6 29.1
03:40 1021 30.15 850 25.1 4.4 39.8 64 -1.9 28.7
03:45 1021 30.15 850 25.1 4.4 39.9 63 -2.1 28.3
03:50 1021 30.15 850 25.1 4.4 39.9 60 -2.7 27.2
03:55 1020 30.12 850 25.1 4.4 40 59 -2.9 26.8
04:00 1020 30.12 850 25.1 4.5 40.2 58 -3 26.5
04:05 1020 30.12 850 25.1 4.4 40 58 -3.1 26.4
04:10 1020 30.12 850 25.1 4.2 39.6 60 -2.9 26.8
04:15 1020 30.12 850 25.1 3.9 39.1 61 -2.8 27
04:20 1020 30.12 850 25.1 3.7 38.6 64 -2.5 27.6
04:25 1021 30.15 850 25.1 3.4 38.2 66 -2.3 27.8
04:30 1021 30.15 850 25.1 3.2 37.8 66 -2.4 27.7
04:35 1021 30.15 850 25.1 3.1 37.5 66 -2.7 27.1
04:40 1021 30.15 850 25.1 3.2 37.8 65 -2.8 26.9
04:45 1021 30.15 850 25.1 3.5 38.4 63 -2.8 26.9
04:50 1021 30.15 850 25.1 3.7 38.7 64 -2.5 27.5
04:55 1021 30.15 850 25.1 3.7 38.6 64 -2.5 27.5
05:00 1021 30.15 850 25.1 3.6 38.5 63 -2.7 27.1
05:05 1021 30.15 850 25.1 3.6 38.4 65 -2.4 27.6
05:10 1021 30.15 850 25.1 3.5 38.2 66 -2.4 27.7
05:15 1021 30.15 850 25.1 3.4 38.1 66 -2.4 27.8
05:20 1021 30.15 850 25.1 3.5 38.2 65 -2.4 27.6
05:25 1021 30.15 850 25.1 3.6 38.4 65 -2.5 27.6
05:30 1021 30.15 850 25.1 3.6 38.5 65 -2.4 27.7
05:35 1021 30.15 850 25.1 3.6 38.4 66 -2.3 27.9
05:40 1021 30.15 850 25.1 3.5 38.3 67 -2.1 28.1
05:45 1021 30.15 850 25.1 3.4 38.2 65 -2.4 27.6
05:50 1021 30.15 850 25.1 3.5 38.4 62 -3.1 26.4
05:55 1021 30.15 850 25.1 3.8 38.8 61 -3.1 26.5
06:00 1021 30.15 850 25.1 3.8 38.9 62 -2.7 27.1
06:05 1021 30.15 850 25.1 3.8 38.8 62 -2.8 27
06:10 1021 30.15 850 25.1 3.8 38.8 61 -3 26.7
06:15 1021 30.15 850 25.1 3.8 38.9 61 -2.9 26.7
06:20 1021 30.15 850 25.1 3.8 38.9 62 -2.9 26.8
06:25 1021 30.15 850 25.1 3.8 38.8 61 -3 26.6
06:30 1021 30.15 850 25.1 3.7 38.6 64 -2.6 27.4
06:35 1021 30.15 850 25.1 3.5 38.3 64 -2.6 27.3
06:40 1021 30.15 850 25.1 3.5 38.3 64 -2.7 27.1
06:45 1021 30.15 850 25.1 3.6 38.5 63 -2.8 26.9
06:50 1021 30.15 850 25.1 3.6 38.6 64 -2.6 27.3
06:55 1021 30.15 850 25.1 3.6 38.4 64 -2.6 27.3
07:00 1021 30.15 851 25.13 3.6 38.5 62 -2.9 26.7
07:05 1021 30.15 850 25.1 3.7 38.6 62 -2.9 26.7
07:10 1021 30.15 850 25.1 3.6 38.5 62 -2.9 26.7
07:15 1021 30.15 850 25.1 3.6 38.5 61 -3.1 26.4
07:20 1021 30.15 850 25.1 3.7 38.7 61 -3.2 26.2
07:25 1021 30.15 850 25.1 3.8 38.8 60 -3.2 26.2
07:30 1021 30.15 850 25.1 3.8 38.8 60 -3.4 25.9
07:35 1021 30.15 850 25.1 3.7 38.7 61 -3.1 26.3
07:40 1021 30.15 850 25.1 3.6 38.5 62 -3 26.5
07:45 1021 30.15 850 25.1 3.4 38.1 63 -2.9 26.7
07:50 1021 30.15 850 25.1 3.1 37.6 66 -2.6 27.3
07:55 1021 30.15 850 25.1 2.7 36.8 67 -2.8 27
08:00 1021 30.15 850 25.1 2.6 36.6 69 -2.6 27.3
08:05 1021 30.15 850 25.1 2.6 36.7 68 -2.6 27.3
08:10 1021 30.15 850 25.1 2.7 36.9 67 -2.9 26.8
08:15 1021 30.15 850 25.1 3.4 38 59 -3.8 25.2
08:20 1021 30.15 850 25.1 4.1 39.4 59 -3.1 26.4
08:25 1021 30.15 850 25.1 4.2 39.6 60 -2.9 26.8
08:30 1021 30.15 850 25.1 4.5 40 59 -2.9 26.7
08:35 1021 30.15 850 25.1 4.8 40.7 58 -2.8 27
08:40 1021 30.15 850 25.1 4.9 40.8 58 -2.6 27.3
08:45 1021 30.15 850 25.1 5 41.1 58 -2.5 27.5
08:50 1021 30.15 850 25.1 5.4 41.7 60 -1.7 28.9
08:55 1021 30.15 850 25.1 5.5 41.9 60 -1.7 28.9
09:00 1021 30.15 850 25.1 5.5 42 58 -2 28.5
09:05 1021 30.15 850 25.1 5.8 42.5 57 -2.1 28.3
09:10 1021 30.15 850 25.1 5.8 42.4 56 -2.2 28.1
09:15 1021 30.15 850 25.1 5.8 42.5 57 -1.9 28.5
09:20 1021 30.15 850 25.1 5.6 42 57 -2.4 27.7
09:25 1021 30.15 850 25.1 5.6 42 57 -2.4 27.7
09:30 1021 30.15 850 25.1 5.5 42 57 -2.3 27.9
09:35 1021 30.15 850 25.1 5.6 42.1 57 -2.2 28
09:40 1021 30.15 850 25.1 5.7 42.3 54 -2.8 27
09:45 1021 30.15 850 25.1 6 42.8 56 -2 28.4
09:50 1021 30.15 850 25.1 6.3 43.4 53 -2.5 27.4
09:55 1021 30.15 850 25.1 6.1 43.1 54 -2.4 27.7
10:00 1021 30.15 850 25.1 6.2 43.1 53 -2.7 27.1
10:05 1021 30.15 850 25.1 6.4 43.6 51 -2.8 26.9
10:10 1021 30.15 850 25.1 6.9 44.5 50 -2.7 27.1
10:15 1021 30.15 850 25.1 7.2 44.9 49 -2.8 26.9
10:20 1021 30.15 850 25.1 7.3 45.1 49 -2.7 27.1
10:25 1021 30.15 850 25.1 7.1 44.8 50 -2.6 27.4
10:30 1021 30.15 850 25.1 7.2 44.9 50 -2.6 27.3
10:35 1021 30.15 850 25.1 7.3 45.1 50 -2.5 27.4
10:40 1021 30.15 850 25.1 7.3 45.2 50 -2.3 27.9
10:45 1021 30.15 850 25.1 7.3 45.1 51 -2.2 28
10:50 1021 30.15 850 25.1 7.4 45.3 49 -2.6 27.3
10:55 1021 30.15 850 25.1 7.5 45.4 49 -2.5 27.6
11:00 1021 30.15 850 25.1 7.5 45.4 51 -1.9 28.5
11:05 1021 30.15 850 25.1 7.1 44.8 50 -2.6 27.4
11:10 1021 30.15 850 25.1 7 44.6 50 -2.8 27
11:15 1021 30.15 850 25.1 7.3 45.1 47 -3.2 26.3
11:20 1021 30.15 850 25.1 7.6 45.6 46 -3.2 26.3
11:25 1021 30.15 850 25.1 8 46.5 43 -3.9 25
11:30 1021 30.15 850 25.1 8.2 46.8 42 -4 24.9
11:35 1020 30.12 850 25.1 8.4 47.2 39 -4.9 23.3
11:40 1020 30.12 850 25.1 8.4 47.2 40 -4.3 24.2
11:45 1021 30.15 850 25.1 8.4 47.2 40 -4.5 23.9
11:50 1020 30.12 850 25.1 8.7 47.7 39 -4.5 23.9
11:55 1020 30.12 850 25.1 9.3 48.8 37 -4.5 23.8
12:00 1020 30.12 849 25.07 9.9 49.8 37 -4 24.7
12:05 1020 30.12 849 25.07 9.7 49.4 38 -3.8 25.2
12:10 1020 30.12 849 25.07 9.5 49.2 36 -4.8 23.3
12:15 1020 30.12 849 25.07 9.4 49 36 -5 23
12:20 1020 30.12 849 25.07 9.1 48.4 38 -4.4 24.1
12:25 1020 30.12 849 25.07 9.3 48.7 35 -5.3 22.4
12:30 1019 30.09 849 25.07 9.8 49.7 35 -4.8 23.4
12:35 1019 30.09 849 25.07 10.3 50.5 34 -4.9 23.1
12:40 1019 30.09 849 25.07 10.3 50.5 34 -4.7 23.5
12:45 1019 30.09 849 25.07 9.8 49.6 37 -4.3 24.3
12:50 1019 30.09 849 25.07 10 50 35 -4.9 23.2
12:55 1019 30.09 848 25.04 10.2 50.4 35 -4.7 23.6
13:00 1019 30.09 848 25.04 10.5 51 35 -4.4 24
13:05 1019 30.09 848 25.04 10.2 50.3 36 -4.3 24.2
13:10 1019 30.09 848 25.04 10.4 50.8 37 -3.8 25.2
13:15 1019 30.09 848 25.04 10.2 50.4 37 -3.8 25.2
13:20 1019 30.09 848 25.04 10.1 50.2 38 -3.5 25.7
13:25 1019 30.09 848 25.04 10.2 50.3 35 -4.7 23.5
13:30 1019 30.09 848 25.04 10.5 50.9 37 -3.5 25.7
13:35 1019 30.09 848 25.04 10.9 51.7 35 -3.8 25.1
13:40 1019 30.09 848 25.04 11.1 51.9 35 -4 24.9
13:45 1019 30.09 848 25.04 11.2 52.1 33 -4.3 24.3
13:50 1019 30.09 848 25.04 11.5 52.8 33 -4.3 24.3
13:55 1019 30.09 848 25.04 11.6 52.8 34 -3.8 25.1
14:00 1018 30.06 848 25.04 11.3 52.4 34 -3.9 24.9
14:05 1018 30.06 848 25.04 11.3 52.3 35 -3.7 25.3
14:10 1018 30.06 848 25.04 11.2 52.1 36 -3.5 25.8
14:15 1018 30.06 848 25.04 10.8 51.5 36 -3.8 25.2
14:20 1018 30.06 847 25.01 10.8 51.4 35 -3.9 24.9
14:25 1018 30.06 847 25.01 10.8 51.4 36 -3.8 25.2
14:30 1018 30.06 847 25.01 10.8 51.4 34 -4.3 24.3
14:35 1018 30.06 847 25.01 10.9 51.6 35 -4 24.8
14:40 1018 30.06 847 25.01 11.2 52.2 35 -3.6 25.6
14:45 1018 30.06 847 25.01 11.6 53 36 -2.7 27.1
14:50 1018 30.06 847 25.01 11.3 52.3 37 -3 26.5
14:55 1018 30.06 847 25.01 11.2 52.1 35 -3.7 25.4
15:00 1018 30.06 847 25.01 11.7 53.1 34 -3.7 25.3
15:05 1018 30.06 847 25.01 12 53.6 34 -3.2 26.2
15:10 1018 30.06 847 25.01 12.2 53.9 35 -2.9 26.8
15:15 1018 30.06 847 25.01 11.8 53.2 33 -4 24.7
15:20 1018 30.06 847 25.01 11.7 53.1 34 -3.7 25.4
15:25 1017 30.03 847 25.01 11.9 53.4 36 -2.5 27.5
15:30 1017 30.03 847 25.01 12.2 53.9 36 -2.5 27.6
15:35 1017 30.03 847 25.01 12.1 53.9 35 -2.9 26.8
15:40 1017 30.03 847 25.01 11.9 53.5 35 -2.9 26.8
15:45 1017 30.03 847 25.01 11.7 53.1 36 -3 26.6
15:50 1017 30.03 846 24.98 11.9 53.5 38 -1.9 28.5
15:55 1017 30.03 846 24.98 11.7 53 38 -2.2 28
16:00 1017 30.03 846 24.98 11.6 52.8 39 -1.9 28.7
16:05 1017 30.03 846 24.98 11.5 52.7 38 -2.4 27.7
16:10 1017 30.03 846 24.98 11.1 52 40 -1.8 28.7
16:15 1017 30.03 846 24.98 11.2 52.2 38 -2.4 27.7
16:20 1017 30.03 846 24.98 11.2 52.1 40 -2 28.3
16:25 1017 30.03 846 24.98 11.1 51.9 41 -1.6 29.1
16:30 1017 30.03 846 24.98 11 51.8 41 -1.6 29.1
16:35 1017 30.03 846 24.98 10.9 51.5 41 -1.9 28.6
16:40 1017 30.03 846 24.98 10.9 51.7 41 -1.9 28.6
16:45 1017 30.03 846 24.98 10.9 51.6 40 -2.1 28.3
16:50 1017 30.03 846 24.98 10.8 51.5 41 -1.9 28.5
16:55 1017 30.03 846 24.98 10.8 51.4 41 -2.1 28.3
17:00 1016 30 846 24.98 10.8 51.4 40 -2.3 27.8
17:05 1016 30 846 24.98 10.8 51.4 40 -2.2 28.1
17:10 1016 30 846 24.98 10.6 51.1 41 -2.1 28.3
17:15 1016 30 846 24.98 10.6 51.2 41 -2 28.4
17:20 1016 30 846 24.98 10.6 51.1 40 -2.3 27.9
17:25 1016 30 845 24.95 10.7 51.2 41 -2 28.3
17:30 1016 30 845 24.95 10.7 51.3 40 -2.3 27.9
17:35 1016 30 845 24.95 10.9 51.6 41 -1.9 28.7
17:40 1016 30 845 24.95 11.1 52 37 -3 26.6
17:45 1016 30 845 24.95 11.3 52.4 38 -2.4 27.7
17:50 1016 30 845 24.95 11.4 52.6 37 -2.7 27.1
17:55 1016 30 845 24.95 11.7 53.1 35 -3.1 26.3
18:00 1016 30 845 24.95 12.1 53.8 35 -2.8 26.9
18:05 1016 30 845 24.95 12.4 54.3 35 -2.6 27.3
18:10 1016 30 845 24.95 12.4 54.4 35 -2.7 27.2
18:15 1016 30 845 24.95 12 53.5 36 -2.5 27.4
18:20 1016 30 845 24.95 12 53.6 35 -2.9 26.8
18:25 1016 30 845 24.95 12 53.7 35 -2.9 26.9
18:30 1016 30 845 24.95 12.4 54.2 35 -2.6 27.3
18:35 1016 30 845 24.95 12.6 54.7 36 -2.2 28.1
18:40 1016 30 845 24.95 11.9 53.4 39 -1.6 29.2
18:45 1015 29.97 845 24.95 11.4 52.5 41 -1.5 29.4
18:50 1015 29.97 845 24.95 11.1 51.9 41 -1.6 29.1
18:55 1015 29.97 845 24.95 10.7 51.2 41 -2 28.5
19:00 1015 29.97 845 24.95 10.6 51.1 42 -1.8 28.8
19:05 1015 29.97 845 24.95 10.4 50.8 44 -1.4 29.5
19:10 1015 29.97 844 24.92 10.1 50.1 45 -1.3 29.6
19:15 1015 29.97 845 24.95 10.1 50.2 45 -1.3 29.6
19:20 1015 29.97 845 24.95 9.9 49.8 46 -1.3 29.7
19:25 1015 29.97 845 24.95 9.9 49.9 43 -2 28.5
19:30 1015 29.97 845 24.95 10 50 45 -1.2 29.8
19:35 1015 29.97 844 24.92 10 49.9 43 -1.9 28.6
19:40 1015 29.97 845 24.95 10.1 50.1 43 -1.9 28.7
19:45 1015 29.97 845 24.95 10.1 50.2 42 -2.1 28.3
19:50 1015 29.97 845 24.95 10.1 50.2 42 -2.1 28.2
19:55 1015 29.97 844 24.92 10 50 43 -1.9 28.6
20:00 1015 29.97 844 24.92 9.8 49.6 44 -1.7 28.9
20:05 1015 29.97 844 24.92 9.7 49.4 43 -2.3 27.9
20:10 1015 29.97 844 24.92 10 49.9 41 -2.6 27.3
20:15 1015 29.97 844 24.92 10.1 50.1 43 -2 28.3
20:20 1015 29.97 844 24.92 10 50.1 40 -3 26.6
20:25 1015 29.97 844 24.92 10.4 50.6 40 -2.7 27.1
20:30 1015 29.97 844 24.92 10.5 50.8 40 -2.4 27.6
20:35 1015 29.97 844 24.92 10.4 50.7 41 -2.2 28
20:40 1015 29.97 844 24.92 10.2 50.3 41 -2.3 27.8
20:45 1015 29.97 844 24.92 10.1 50.3 42 -2.3 27.9
20:50 1015 29.97 844 24.92 10.2 50.4 42 -2.2 28
20:55 1014 29.94 844 24.92 10.6 51.1 39 -2.8 26.9
21:00 1014 29.94 844 24.92 11 51.7 39 -2.4 27.7
21:05 1014 29.94 844 24.92 10.9 51.6 39 -2.6 27.3
21:10 1014 29.94 844 24.92 11 51.7 39 -2.5 27.5
21:15 1014 29.94 844 24.92 11 51.7 38 -2.6 27.3
21:20 1014 29.94 843 24.89 10.8 51.5 40 -2.4 27.8
21:25 1014 29.94 843 24.89 10.9 51.5 38 -2.9 26.8
21:30 1014 29.94 843 24.89 11 51.8 39 -2.4 27.7
21:35 1014 29.94 843 24.89 11 51.7 39 -2.5 27.4
21:40 1014 29.94 843 24.89 10.9 51.7 41 -1.9 28.6
21:45 1014 29.94 843 24.89 10.7 51.3 40 -2.3 27.8
21:50 1014 29.94 843 24.89 10.7 51.3 40 -2.3 27.9
21:55 1014 29.94 843 24.89 10.7 51.2 41 -2.1 28.1
22:00 1014 29.94 843 24.89 10.7 51.3 39 -2.6 27.3
22:05 1014 29.94 843 24.89 11.1 51.9 37 -2.8 26.9
22:10 1014 29.94 843 24.89 11 51.9 39 -2.2 28.1
22:15 1014 29.94 843 24.89 10.8 51.5 39 -2.4 27.7
22:20 1014 29.94 843 24.89 10.7 51.3 39 -2.5 27.6
22:25 1014 29.94 843 24.89 10.7 51.2 40 -2.2 28.1
22:30 1014 29.94 843 24.89 10.7 51.2 40 -2.4 27.7
22:35 1014 29.94 843 24.89 10.7 51.2 41 -2.1 28.2
22:40 1014 29.94 843 24.89 10.6 51.1 41 -2.1 28.2
22:45 1014 29.94 843 24.89 10.5 50.9 41 -2.1 28.2
22:50 1014 29.94 843 24.89 10.4 50.7 41 -2.2 28.1
22:55 1014 29.94 843 24.89 10.4 50.8 41 -2.2 28.1
23:00 1014 29.94 843 24.89 10.4 50.7 42 -2 28.3
23:05 1014 29.94 843 24.89 10.3 50.6 42 -2 28.4
23:10 1013 29.91 843 24.89 10.2 50.3 42 -2.1 28.2
23:15 1013 29.91 843 24.89 10.2 50.3 43 -1.7 28.9
23:20 1013 29.91 842 24.86 10.2 50.3 43 -2 28.5
23:25 1013 29.91 842 24.86 10.3 50.5 42 -1.9 28.7
23:30 1013 29.91 842 24.86 10.5 50.8 41 -2.2 28.1
23:35 1013 29.91 842 24.86 10.5 50.9 42 -1.9 28.7
23:40 1013 29.91 842 24.86 10.3 50.5 44 -1.4 29.6
23:45 1013 29.91 842 24.86 10.1 50.2 44 -1.5 29.2
23:50 1013 29.91 842 24.86 10 50 45 -1.5 29.4
23:55 1013 29.91 842 24.86 10.1 50.2 44 -1.7 29
24:00 1013 29.91 842 24.86 10.1 50.2 44 -1.5 29.4